Pagina principale
METAR-TAF:

METAR-TAF

Aeroporti :

Aeroporto militare

Niederstetten, Germania

latitudine: 49-24N, longitudine: 009-58E, altezza: 468 m

Osservazione

Il bollettino è stato emesso 34 minuti fa, alle 04:20 UTC
Vento 7 kt da ovest
Temperature 14°C
Umidità 100%
Pressione 1020 hPa
Visibilità: 9000 m

METAR: ETHN 160420Z AUTO 27007KT 9000 // ////// 14/14 Q1020 ///

Ora: 06:54 (04:54 UTC)


TAF: mancante

Osservazioni e previsioni meteorologiche di più di 4000 aeroporti (messaggi METAR e TAF).

Le stazioni disponibili sono rappresentate dai dischi gialli e rossi sulla carta.

Puntare il mouse per vedere il nome della stazione.

Clicca sopra per visualizzare le osservazioni e previsioni meteorologiche.

Per cambiare la mappa : fare clic sui pulsanti verdi con una croce nera per ingrandire, il pulsante verde con un trattino per diminuire, o sulla freccia verde per le mappe adiacenti.


METAR-TAF: